createdAt,value
2019-05-29T00:00:25.611Z,955.15
2019-05-29T00:01:25.574Z,955.10
2019-05-29T00:02:25.571Z,955.14
2019-05-29T00:03:25.578Z,955.13
2019-05-29T00:04:25.540Z,955.12
2019-05-29T00:05:25.529Z,955.12
2019-05-29T00:06:25.528Z,955.11
2019-05-29T00:07:25.520Z,955.11
2019-05-29T00:08:25.516Z,955.15
2019-05-29T00:09:25.570Z,955.15
2019-05-29T00:10:25.469Z,955.13
2019-05-29T00:11:25.462Z,955.20
2019-05-29T00:12:25.453Z,955.11
2019-05-29T00:13:25.826Z,955.09
2019-05-29T00:14:27.440Z,955.17
2019-05-29T00:15:25.413Z,955.13
2019-05-29T00:16:25.406Z,955.13
2019-05-29T00:17:25.394Z,955.17
2019-05-29T00:18:25.404Z,955.13
2019-05-29T00:19:25.393Z,955.10
2019-05-29T00:20:25.356Z,955.15
2019-05-29T00:21:25.353Z,955.17
2019-05-29T00:22:25.346Z,955.18
2019-05-29T00:23:25.326Z,955.13
2019-05-29T00:24:25.344Z,955.11
2019-05-29T00:25:25.317Z,955.16
2019-05-29T00:26:25.295Z,955.15
2019-05-29T00:27:25.284Z,955.11
2019-05-29T00:28:25.265Z,955.17
2019-05-29T00:29:25.274Z,955.15
2019-05-29T00:30:25.275Z,955.17
2019-05-29T00:31:25.238Z,955.12
2019-05-29T00:32:25.229Z,955.05
2019-05-29T00:33:25.215Z,955.08
2019-05-29T00:34:25.205Z,955.10
2019-05-29T00:35:25.206Z,955.13
2019-05-29T00:36:25.185Z,955.10
2019-05-29T00:37:25.176Z,955.17
2019-05-29T00:38:25.155Z,955.08
2019-05-29T00:39:25.155Z,955.11
2019-05-29T00:40:25.155Z,955.10
2019-05-29T00:41:25.129Z,955.11
2019-05-29T00:42:25.115Z,955.12
2019-05-29T00:43:25.105Z,955.13
2019-05-29T00:44:33.853Z,955.08
2019-05-29T00:45:26.114Z,955.14
2019-05-29T00:46:25.087Z,955.17
2019-05-29T00:47:25.066Z,955.17
2019-05-29T00:48:25.057Z,955.13
2019-05-29T00:49:25.044Z,955.14
2019-05-29T00:50:25.045Z,955.06
2019-05-29T00:51:25.047Z,955.11
2019-05-29T00:52:25.014Z,955.14
2019-05-29T00:53:25.004Z,955.18
2019-05-29T00:54:24.986Z,955.11
2019-05-29T00:55:24.982Z,955.14
2019-05-29T00:56:24.983Z,955.13
2019-05-29T00:57:24.956Z,955.11
2019-05-29T00:58:24.953Z,955.15
2019-05-29T00:59:24.934Z,955.14
2019-05-29T01:00:24.914Z,955.15
2019-05-29T01:01:24.936Z,955.11
2019-05-29T01:02:24.903Z,955.15
2019-05-29T01:03:24.894Z,955.20
2019-05-29T01:04:24.892Z,955.16
2019-05-29T01:05:24.864Z,955.16
2019-05-29T01:06:24.871Z,955.18
2019-05-29T01:07:24.846Z,955.17
2019-05-29T01:08:24.834Z,955.26
2019-05-29T01:09:24.824Z,955.20
2019-05-29T01:10:24.822Z,955.25
2019-05-29T01:11:24.815Z,955.25
2019-05-29T01:12:26.464Z,955.23
2019-05-29T01:13:24.786Z,955.21
2019-05-29T01:14:24.764Z,955.25
2019-05-29T01:15:24.756Z,955.26
2019-05-29T01:16:24.766Z,955.29
2019-05-29T01:17:24.745Z,955.23
2019-05-29T01:18:24.737Z,955.30
2019-05-29T01:19:24.724Z,955.26
2019-05-29T01:20:24.695Z,955.25
2019-05-29T01:21:24.694Z,955.26
2019-05-29T01:22:24.700Z,955.25
2019-05-29T01:23:24.674Z,955.21
2019-05-29T01:24:24.655Z,955.28
2019-05-29T01:25:24.644Z,955.30
2019-05-29T01:26:24.646Z,955.27
2019-05-29T01:27:24.635Z,955.29
2019-05-29T01:28:24.606Z,955.30
2019-05-29T01:29:24.606Z,955.31
2019-05-29T01:30:24.595Z,955.32
2019-05-29T01:31:24.587Z,955.33
2019-05-29T01:32:24.584Z,955.33
2019-05-29T01:33:25.038Z,955.32
2019-05-29T01:34:24.577Z,955.29
2019-05-29T01:35:24.537Z,955.32
2019-05-29T01:36:24.536Z,955.35
2019-05-29T01:37:24.538Z,955.39
2019-05-29T01:38:24.527Z,955.31
2019-05-29T01:39:24.505Z,955.33
2019-05-29T01:40:27.864Z,955.38
2019-05-29T01:41:24.466Z,955.38
2019-05-29T01:42:24.461Z,955.35
2019-05-29T01:43:24.467Z,955.35
2019-05-29T01:44:24.454Z,955.39
2019-05-29T01:45:24.455Z,955.34
2019-05-29T01:46:24.427Z,955.37
2019-05-29T01:47:24.404Z,955.38
2019-05-29T01:48:24.414Z,955.41
2019-05-29T01:49:24.384Z,955.37
2019-05-29T01:50:24.373Z,955.38
2019-05-29T01:51:24.356Z,955.41
2019-05-29T01:52:24.353Z,955.39
2019-05-29T01:53:24.358Z,955.41
2019-05-29T01:54:24.332Z,955.41
2019-05-29T01:55:24.314Z,955.41
2019-05-29T01:56:24.302Z,955.42
2019-05-29T01:57:24.297Z,955.52
2019-05-29T01:58:24.303Z,955.45
2019-05-29T01:59:24.267Z,955.47
2019-05-29T02:00:24.269Z,955.48
2019-05-29T02:01:24.244Z,955.48
2019-05-29T02:02:24.245Z,955.51
2019-05-29T02:03:24.246Z,955.49
2019-05-29T02:04:24.611Z,955.54
2019-05-29T02:05:24.256Z,955.49
2019-05-29T02:06:24.196Z,955.58
2019-05-29T02:07:24.185Z,955.55
2019-05-29T02:08:24.311Z,955.57
2019-05-29T02:09:24.315Z,955.59
2019-05-29T02:10:24.401Z,955.59
2019-05-29T02:11:24.134Z,955.62
2019-05-29T02:12:24.437Z,955.62
2019-05-29T02:13:25.133Z,955.61
2019-05-29T02:14:24.844Z,955.61
2019-05-29T02:15:32.073Z,955.61
2019-05-29T02:16:25.090Z,955.64
2019-05-29T02:17:24.081Z,955.66
2019-05-29T02:18:25.085Z,955.66
2019-05-29T02:19:24.137Z,955.67
2019-05-29T02:20:25.104Z,955.64
2019-05-29T02:21:24.216Z,955.65
2019-05-29T02:22:24.866Z,955.68
2019-05-29T02:23:24.222Z,955.67
2019-05-29T02:24:25.339Z,955.70
2019-05-29T02:25:24.359Z,955.70
2019-05-29T02:26:24.421Z,955.68
2019-05-29T02:27:23.963Z,955.63
2019-05-29T02:28:24.609Z,955.70
2019-05-29T02:29:24.873Z,955.69
2019-05-29T02:30:27.507Z,955.62
2019-05-29T02:31:27.046Z,955.72
2019-05-29T02:32:25.451Z,955.68
2019-05-29T02:33:24.631Z,955.74
2019-05-29T02:34:25.518Z,955.74
2019-05-29T02:35:24.881Z,955.70
2019-05-29T02:36:24.552Z,955.77
2019-05-29T02:37:24.423Z,955.80
2019-05-29T02:38:25.071Z,955.75
2019-05-29T02:39:25.621Z,955.76
2019-05-29T02:40:25.828Z,955.78
2019-05-29T02:41:25.710Z,955.76
2019-05-29T02:42:25.192Z,955.75
2019-05-29T02:43:25.428Z,955.84
2019-05-29T02:44:25.293Z,955.80
2019-05-29T02:45:26.234Z,955.82
2019-05-29T02:46:28.607Z,955.83
2019-05-29T02:47:23.771Z,955.88
2019-05-29T02:48:25.075Z,955.91
2019-05-29T02:49:23.920Z,955.88
2019-05-29T02:50:24.014Z,955.93
2019-05-29T02:51:24.243Z,955.97
2019-05-29T02:52:24.266Z,956.02
2019-05-29T02:53:24.459Z,955.93
2019-05-29T02:54:24.947Z,956.03
2019-05-29T02:55:24.510Z,955.97
2019-05-29T02:56:24.908Z,956.00
2019-05-29T02:57:24.633Z,956.04
2019-05-29T02:58:25.357Z,956.06
2019-05-29T02:59:25.484Z,956.06
2019-05-29T03:00:25.553Z,956.06
2019-05-29T03:01:24.029Z,956.07
2019-05-29T03:02:23.590Z,956.10
2019-05-29T03:03:24.015Z,956.10
2019-05-29T03:04:24.098Z,956.10
2019-05-29T03:05:23.899Z,956.14
2019-05-29T03:06:24.078Z,956.10
2019-05-29T03:07:24.313Z,956.11
2019-05-29T03:08:24.647Z,956.10
2019-05-29T03:09:24.747Z,956.18
2019-05-29T03:10:24.760Z,956.14
2019-05-29T03:11:25.037Z,956.19
2019-05-29T03:12:24.931Z,956.20
2019-05-29T03:13:25.262Z,956.26
2019-05-29T03:14:25.110Z,956.23
2019-05-29T03:15:23.680Z,956.26
2019-05-29T03:16:24.366Z,956.28
2019-05-29T03:17:23.754Z,956.26
2019-05-29T03:18:23.969Z,956.31
2019-05-29T03:19:23.878Z,956.23
2019-05-29T03:20:23.920Z,956.27
2019-05-29T03:21:24.091Z,956.33
2019-05-29T03:22:24.094Z,956.29
2019-05-29T03:23:24.245Z,956.27
2019-05-29T03:24:24.476Z,956.27
2019-05-29T03:25:24.266Z,956.29
2019-05-29T03:26:25.272Z,956.29
2019-05-29T03:27:23.311Z,956.29
2019-05-29T03:28:23.300Z,956.29
2019-05-29T03:29:23.281Z,956.31
2019-05-29T03:30:23.275Z,956.35
2019-05-29T03:31:23.282Z,956.38
2019-05-29T03:32:23.243Z,956.38
2019-05-29T03:33:23.249Z,956.35
2019-05-29T03:34:23.240Z,956.38
2019-05-29T03:35:23.222Z,956.36
2019-05-29T03:36:23.224Z,956.43
2019-05-29T03:37:23.198Z,956.43
2019-05-29T03:38:23.181Z,956.45
2019-05-29T03:39:23.170Z,956.50
2019-05-29T03:40:23.188Z,956.44
2019-05-29T03:41:23.184Z,956.42
2019-05-29T03:42:23.932Z,956.52
2019-05-29T03:43:23.132Z,956.51
2019-05-29T03:44:23.218Z,956.55
2019-05-29T03:45:23.111Z,956.47
2019-05-29T03:46:31.440Z,956.53
2019-05-29T03:47:24.102Z,956.49
2019-05-29T03:48:23.071Z,956.58
2019-05-29T03:49:23.064Z,956.53
2019-05-29T03:50:23.054Z,956.56
2019-05-29T03:51:23.047Z,956.67
2019-05-29T03:52:23.055Z,956.62
2019-05-29T03:53:23.024Z,956.58
2019-05-29T03:54:23.011Z,956.62
2019-05-29T03:55:23.000Z,956.66
2019-05-29T03:56:22.984Z,956.65
2019-05-29T03:57:23.003Z,956.69
2019-05-29T03:58:22.952Z,956.68
2019-05-29T03:59:23.080Z,956.76
2019-05-29T04:00:22.939Z,956.77
2019-05-29T04:01:22.953Z,956.83
2019-05-29T04:02:22.953Z,956.81
2019-05-29T04:03:22.901Z,956.80
2019-05-29T04:04:22.915Z,956.80
2019-05-29T04:05:22.884Z,956.84
2019-05-29T04:06:22.873Z,956.79
2019-05-29T04:07:22.881Z,956.95
2019-05-29T04:08:22.871Z,956.88
2019-05-29T04:09:22.842Z,956.89
2019-05-29T04:10:22.829Z,956.91
2019-05-29T04:11:22.813Z,956.90
2019-05-29T04:12:24.491Z,956.86
2019-05-29T04:13:22.791Z,956.97
2019-05-29T04:14:22.782Z,956.87
2019-05-29T04:15:22.785Z,956.93
2019-05-29T04:16:22.761Z,956.96
2019-05-29T04:17:22.828Z,956.96
2019-05-29T04:18:22.754Z,956.98
2019-05-29T04:19:22.731Z,956.99
2019-05-29T04:20:22.710Z,957.08
2019-05-29T04:21:22.723Z,956.98
2019-05-29T04:22:22.722Z,956.99
2019-05-29T04:23:22.681Z,957.05
2019-05-29T04:24:22.673Z,957.12
2019-05-29T04:25:22.680Z,957.07
2019-05-29T04:26:22.655Z,957.04
2019-05-29T04:27:22.654Z,957.13
2019-05-29T04:28:22.632Z,957.07
2019-05-29T04:29:22.623Z,957.12
2019-05-29T04:30:22.600Z,957.02
2019-05-29T04:32:14.154Z,957.15
2019-05-29T04:33:14.124Z,957.15
2019-05-29T04:34:14.102Z,957.18
2019-05-29T04:35:14.079Z,957.16
2019-05-29T04:36:14.081Z,957.17
2019-05-29T04:37:14.092Z,957.16
2019-05-29T04:38:14.068Z,957.17
2019-05-29T04:39:14.049Z,957.22
2019-05-29T04:40:14.033Z,957.21
2019-05-29T04:41:14.030Z,957.21
2019-05-29T04:42:14.018Z,957.24
2019-05-29T04:43:14.033Z,957.24
2019-05-29T04:44:14.003Z,957.30
2019-05-29T04:45:14.005Z,957.25
2019-05-29T04:46:13.965Z,957.24
2019-05-29T04:47:13.950Z,957.28
2019-05-29T04:48:13.963Z,957.31
2019-05-29T04:49:13.943Z,957.28
2019-05-29T04:50:13.928Z,957.32
2019-05-29T04:51:13.895Z,957.34
2019-05-29T04:52:13.914Z,957.28
2019-05-29T04:53:13.914Z,957.35
2019-05-29T04:54:13.882Z,957.38
2019-05-29T04:55:13.876Z,957.39
2019-05-29T04:56:13.881Z,957.34
2019-05-29T04:57:13.842Z,957.37
2019-05-29T04:58:13.854Z,957.42
2019-05-29T04:59:13.848Z,957.43
2019-05-29T05:00:13.806Z,957.46
2019-05-29T05:01:13.865Z,957.41
2019-05-29T05:02:13.816Z,957.42
2019-05-29T05:03:13.800Z,957.42
2019-05-29T05:04:13.769Z,957.47
2019-05-29T05:05:13.753Z,957.50
2019-05-29T05:06:13.746Z,957.56
2019-05-29T05:07:13.734Z,957.51
2019-05-29T05:08:13.743Z,957.53
2019-05-29T05:09:13.719Z,957.53
2019-05-29T05:10:13.707Z,957.56
2019-05-29T05:11:13.687Z,957.52
2019-05-29T05:12:13.713Z,957.51
2019-05-29T05:13:13.675Z,957.57
2019-05-29T05:14:13.655Z,957.61
2019-05-29T05:15:13.656Z,957.55
2019-05-29T05:16:13.632Z,957.60
2019-05-29T05:17:25.892Z,957.56
2019-05-29T05:18:14.625Z,957.56
2019-05-29T05:19:16.763Z,957.60
2019-05-29T05:20:13.597Z,957.64
2019-05-29T05:21:13.564Z,957.63
2019-05-29T05:22:13.577Z,957.63
2019-05-29T05:23:13.554Z,957.68
2019-05-29T05:24:13.574Z,957.72
2019-05-29T05:25:13.537Z,957.67
2019-05-29T05:26:13.534Z,957.68
2019-05-29T05:27:13.599Z,957.73
2019-05-29T05:28:13.505Z,957.77
2019-05-29T05:29:13.512Z,957.78
2019-05-29T05:30:13.463Z,957.75
2019-05-29T05:31:13.467Z,957.77
2019-05-29T05:32:13.455Z,957.79
2019-05-29T05:33:13.433Z,957.80
2019-05-29T05:34:13.454Z,957.78
2019-05-29T05:35:14.477Z,957.81
2019-05-29T05:36:13.415Z,957.81
2019-05-29T05:37:13.432Z,957.85
2019-05-29T05:38:13.383Z,957.89
2019-05-29T05:39:13.392Z,957.84
2019-05-29T05:40:13.471Z,957.88
2019-05-29T05:41:13.348Z,957.89
2019-05-29T05:42:13.363Z,957.88
2019-05-29T05:43:23.532Z,957.87
2019-05-29T05:44:14.331Z,957.95
2019-05-29T05:45:13.317Z,957.88
2019-05-29T05:46:13.291Z,957.86
2019-05-29T05:47:13.296Z,957.92
2019-05-29T05:48:13.278Z,957.95
2019-05-29T05:49:13.274Z,957.94
2019-05-29T05:50:13.252Z,957.99
2019-05-29T05:51:13.248Z,958.00
2019-05-29T05:52:13.236Z,957.99
2019-05-29T05:53:13.228Z,957.97
2019-05-29T05:54:13.249Z,958.01
2019-05-29T05:55:13.201Z,957.98
2019-05-29T05:56:13.193Z,958.01
2019-05-29T05:57:13.182Z,958.03
2019-05-29T05:58:13.176Z,958.02
2019-05-29T05:59:13.201Z,958.08
2019-05-29T06:00:13.143Z,958.02
2019-05-29T06:01:13.124Z,958.03
2019-05-29T06:02:13.115Z,957.98
2019-05-29T06:03:13.136Z,958.05
2019-05-29T06:04:13.145Z,958.09
2019-05-29T06:05:13.096Z,958.10
2019-05-29T06:06:13.071Z,958.09
2019-05-29T06:07:13.062Z,958.13
2019-05-29T06:08:13.053Z,958.08
2019-05-29T06:09:13.055Z,958.13
2019-05-29T06:10:13.089Z,958.15
2019-05-29T06:11:13.023Z,958.12
2019-05-29T06:12:13.012Z,958.14
2019-05-29T06:13:13.046Z,958.20
2019-05-29T06:14:13.045Z,958.21
2019-05-29T06:15:12.984Z,958.17
2019-05-29T06:16:12.962Z,958.24
2019-05-29T06:17:12.952Z,958.24
2019-05-29T06:18:21.073Z,958.19
2019-05-29T06:19:13.955Z,958.21
2019-05-29T06:20:12.912Z,958.24
2019-05-29T06:21:12.962Z,958.22
2019-05-29T06:22:12.891Z,958.24
2019-05-29T06:23:12.931Z,958.28
2019-05-29T06:24:12.947Z,958.28
2019-05-29T06:25:12.863Z,958.25
2019-05-29T06:26:12.909Z,958.38
2019-05-29T06:27:12.831Z,958.36
2019-05-29T06:28:12.821Z,958.27
2019-05-29T06:29:12.831Z,958.29
2019-05-29T06:30:12.820Z,958.29
2019-05-29T06:31:12.821Z,958.34
2019-05-29T06:32:12.818Z,958.34
2019-05-29T06:33:12.811Z,958.35
2019-05-29T06:34:12.771Z,958.34
2019-05-29T06:35:12.754Z,958.34
2019-05-29T06:36:12.731Z,958.32
2019-05-29T06:37:12.721Z,958.34
2019-05-29T06:38:12.711Z,958.32
2019-05-29T06:39:12.736Z,958.36
2019-05-29T06:40:12.708Z,958.43
2019-05-29T06:41:12.788Z,958.36
2019-05-29T06:42:12.671Z,958.40
2019-05-29T06:43:12.672Z,958.39
2019-05-29T06:44:12.661Z,958.39
2019-05-29T06:45:12.668Z,958.37
2019-05-29T06:46:12.649Z,958.41
2019-05-29T06:47:12.624Z,958.41
2019-05-29T06:48:12.626Z,958.44
2019-05-29T06:49:12.591Z,958.37
2019-05-29T06:50:12.590Z,958.47
2019-05-29T06:51:12.573Z,958.44
2019-05-29T06:52:12.563Z,958.38
2019-05-29T06:53:12.540Z,958.39
2019-05-29T06:54:12.538Z,958.48
2019-05-29T06:55:12.563Z,958.42
2019-05-29T06:56:12.556Z,958.45
2019-05-29T06:57:12.502Z,958.46
2019-05-29T06:58:12.488Z,958.46
2019-05-29T06:59:12.483Z,958.54
2019-05-29T07:00:12.496Z,958.49
2019-05-29T07:01:12.463Z,958.51
2019-05-29T07:02:12.511Z,958.53
2019-05-29T07:03:12.437Z,958.55
2019-05-29T07:04:12.727Z,958.56
2019-05-29T07:05:12.463Z,958.55
2019-05-29T07:06:12.408Z,958.59
2019-05-29T07:07:12.408Z,958.51
2019-05-29T07:08:19.041Z,958.54
2019-05-29T07:09:13.391Z,958.57
2019-05-29T07:10:12.360Z,958.50
2019-05-29T07:11:12.370Z,958.48
2019-05-29T07:12:12.336Z,958.58
2019-05-29T07:13:12.322Z,958.56
2019-05-29T07:14:12.301Z,958.55
2019-05-29T07:15:12.309Z,958.57
2019-05-29T07:16:12.303Z,958.58
2019-05-29T07:17:12.297Z,958.62
2019-05-29T07:18:12.311Z,958.65
2019-05-29T07:19:25.573Z,958.60
2019-05-29T07:20:13.241Z,958.65
2019-05-29T07:21:12.270Z,958.61
2019-05-29T07:22:12.221Z,958.65
2019-05-29T07:23:12.233Z,958.64
2019-05-29T07:24:12.251Z,958.64
2019-05-29T07:25:12.209Z,958.75
2019-05-29T07:26:12.205Z,958.75
2019-05-29T07:27:13.569Z,958.71
2019-05-29T07:28:12.180Z,958.75
2019-05-29T07:29:12.170Z,958.78
2019-05-29T07:30:12.132Z,958.72
2019-05-29T07:31:12.235Z,958.74
2019-05-29T07:32:12.132Z,958.78
2019-05-29T07:33:12.141Z,958.78
2019-05-29T07:34:12.092Z,958.84
2019-05-29T07:35:12.093Z,958.77
2019-05-29T07:36:12.119Z,958.77
2019-05-29T07:37:12.049Z,958.81
2019-05-29T07:38:12.070Z,958.83
2019-05-29T07:39:12.038Z,958.85
2019-05-29T07:40:12.023Z,958.88
2019-05-29T07:41:12.064Z,958.89
2019-05-29T07:42:12.066Z,958.94
2019-05-29T07:43:11.996Z,958.95
2019-05-29T07:44:11.976Z,958.98
2019-05-29T07:45:11.985Z,959.00
2019-05-29T07:46:12.832Z,958.98
2019-05-29T07:47:12.016Z,958.96
2019-05-29T07:48:11.933Z,958.95
2019-05-29T07:49:11.931Z,958.96
2019-05-29T07:50:11.922Z,958.93
2019-05-29T07:51:11.900Z,958.98
2019-05-29T07:52:11.900Z,959.01
2019-05-29T07:53:11.902Z,959.04
2019-05-29T07:54:11.896Z,959.00
2019-05-29T07:55:11.871Z,958.98
2019-05-29T07:56:22.084Z,959.00
2019-05-29T07:57:12.873Z,959.03
2019-05-29T07:58:11.847Z,959.06
2019-05-29T07:59:11.815Z,958.99
2019-05-29T08:00:11.803Z,959.05
2019-05-29T08:01:13.847Z,959.01
2019-05-29T08:02:11.785Z,959.07
2019-05-29T08:03:11.819Z,959.09
2019-05-29T08:04:11.773Z,959.02
2019-05-29T08:05:11.739Z,959.01
2019-05-29T08:06:11.742Z,959.01
2019-05-29T08:07:11.715Z,959.12
2019-05-29T08:08:11.730Z,959.16
2019-05-29T08:09:11.701Z,959.21
2019-05-29T08:10:11.701Z,959.19
2019-05-29T08:11:11.709Z,959.16
2019-05-29T08:12:11.671Z,959.17
2019-05-29T08:13:11.672Z,959.14
2019-05-29T08:14:11.647Z,959.22
2019-05-29T08:15:11.643Z,959.24
2019-05-29T08:16:11.623Z,959.19
2019-05-29T08:17:11.603Z,959.12
2019-05-29T08:18:11.661Z,959.19
2019-05-29T08:19:11.610Z,959.13
2019-05-29T08:20:11.579Z,959.15
2019-05-29T08:21:11.563Z,959.19
2019-05-29T08:22:11.569Z,959.26
2019-05-29T08:23:11.643Z,959.28
2019-05-29T08:24:11.565Z,959.22
2019-05-29T08:25:11.523Z,959.25
2019-05-29T08:26:11.526Z,959.21
2019-05-29T08:27:11.516Z,959.26
2019-05-29T08:28:11.484Z,959.26
2019-05-29T08:29:11.634Z,959.23
2019-05-29T08:30:11.461Z,959.24
2019-05-29T08:31:11.451Z,959.20
2019-05-29T08:32:11.454Z,959.25
2019-05-29T08:33:11.425Z,959.22
2019-05-29T08:34:11.478Z,959.28
2019-05-29T08:35:11.415Z,959.33
2019-05-29T08:36:11.408Z,959.28
2019-05-29T08:37:11.391Z,959.29
2019-05-29T08:38:11.395Z,959.31
2019-05-29T08:39:11.403Z,959.29
2019-05-29T08:40:11.351Z,959.35
2019-05-29T08:41:11.340Z,959.33
2019-05-29T08:42:22.520Z,959.38
2019-05-29T08:43:12.326Z,959.39
2019-05-29T08:44:11.962Z,959.37
2019-05-29T08:45:11.312Z,959.34
2019-05-29T08:46:11.406Z,959.35
2019-05-29T08:47:11.301Z,959.43
2019-05-29T08:48:11.303Z,959.41
2019-05-29T08:49:11.251Z,959.39
2019-05-29T08:50:19.397Z,959.48
2019-05-29T08:51:12.252Z,959.49
2019-05-29T08:52:12.579Z,959.50
2019-05-29T08:53:11.223Z,959.48
2019-05-29T08:54:23.657Z,959.47
2019-05-29T08:55:13.879Z,959.47
2019-05-29T08:56:11.171Z,959.53
2019-05-29T08:57:11.170Z,959.51
2019-05-29T08:58:11.183Z,959.52
2019-05-29T08:59:11.182Z,959.58
2019-05-29T09:00:11.132Z,959.53
2019-05-29T09:01:11.122Z,959.56
2019-05-29T09:02:11.102Z,959.59
2019-05-29T09:03:11.119Z,959.60
2019-05-29T09:04:11.093Z,959.59
2019-05-29T09:05:11.071Z,959.60
2019-05-29T09:06:13.557Z,959.53
2019-05-29T09:07:11.050Z,959.63
2019-05-29T09:08:11.071Z,959.56
2019-05-29T09:09:11.042Z,959.63
2019-05-29T09:10:11.040Z,959.56
2019-05-29T09:11:11.014Z,959.61
2019-05-29T09:12:10.992Z,959.64
2019-05-29T09:13:12.544Z,959.60
2019-05-29T09:14:10.982Z,959.58
2019-05-29T09:15:11.039Z,959.57
2019-05-29T09:16:10.987Z,959.61
2019-05-29T09:17:11.963Z,959.57
2019-05-29T09:18:10.932Z,959.55
2019-05-29T09:19:12.066Z,959.55
2019-05-29T09:20:26.192Z,959.64
2019-05-29T09:21:13.790Z,959.51
2019-05-29T09:22:10.892Z,959.60
2019-05-29T09:23:10.892Z,959.52
2019-05-29T09:24:10.990Z,959.56
2019-05-29T09:25:10.874Z,959.57
2019-05-29T09:26:15.907Z,959.55
2019-05-29T09:27:12.739Z,959.59
2019-05-29T09:28:10.829Z,959.62
2019-05-29T09:29:10.802Z,959.61
2019-05-29T09:30:10.813Z,959.69
2019-05-29T09:31:10.803Z,959.64
2019-05-29T09:32:10.792Z,959.73
2019-05-29T09:33:10.861Z,959.63
2019-05-29T09:34:10.761Z,959.68
2019-05-29T09:35:10.842Z,959.77
2019-05-29T09:36:10.741Z,959.82
2019-05-29T09:37:10.815Z,959.78
2019-05-29T09:38:10.701Z,959.83
2019-05-29T09:39:10.702Z,959.84
2019-05-29T09:40:10.732Z,959.93
2019-05-29T09:41:10.670Z,959.87
2019-05-29T09:42:10.678Z,959.84
2019-05-29T09:43:10.652Z,959.85
2019-05-29T09:44:25.100Z,959.84
2019-05-29T09:45:11.640Z,959.87
2019-05-29T09:46:11.784Z,959.85
2019-05-29T09:47:10.615Z,959.84
2019-05-29T09:48:10.621Z,959.83
2019-05-29T09:49:10.605Z,959.87
2019-05-29T09:50:10.563Z,959.91
2019-05-29T09:51:20.534Z,959.80
2019-05-29T09:52:11.555Z,959.92
2019-05-29T09:53:10.544Z,959.87
2019-05-29T09:54:10.616Z,959.85
2019-05-29T09:55:10.595Z,959.86
2019-05-29T09:56:10.536Z,959.83
2019-05-29T09:57:10.511Z,959.88
2019-05-29T09:58:10.491Z,959.81
2019-05-29T09:59:10.483Z,959.83
2019-05-29T10:00:10.473Z,959.81
2019-05-29T10:01:23.118Z,959.82
2019-05-29T10:02:11.495Z,959.82
2019-05-29T10:03:10.451Z,959.88
2019-05-29T10:04:10.419Z,959.82
2019-05-29T10:05:10.417Z,959.78
2019-05-29T10:06:10.416Z,959.79
2019-05-29T10:07:10.383Z,959.84
2019-05-29T10:08:10.376Z,959.82
2019-05-29T10:09:10.353Z,959.80
2019-05-29T10:10:10.354Z,959.97
2019-05-29T10:11:11.010Z,959.98
2019-05-29T10:12:10.433Z,959.98
2019-05-29T10:13:10.333Z,959.92
2019-05-29T10:14:10.313Z,959.94
2019-05-29T10:15:10.294Z,960.03
2019-05-29T10:16:11.223Z,960.00
2019-05-29T10:17:12.661Z,959.97
2019-05-29T10:18:30.425Z,959.94
2019-05-29T10:19:11.311Z,959.98
2019-05-29T10:20:10.243Z,959.90
2019-05-29T10:21:10.233Z,959.94
2019-05-29T10:22:10.242Z,959.95
2019-05-29T10:23:10.219Z,959.91
2019-05-29T10:24:10.367Z,959.93
2019-05-29T10:25:10.194Z,959.94
2019-05-29T10:26:10.206Z,959.95
2019-05-29T10:27:10.191Z,959.95
2019-05-29T10:28:10.199Z,959.95
2019-05-29T10:29:10.340Z,959.97
2019-05-29T10:30:10.136Z,960.00
2019-05-29T10:31:10.137Z,960.05
2019-05-29T10:32:10.167Z,960.02
2019-05-29T10:33:10.096Z,960.04
2019-05-29T10:34:10.126Z,960.07
2019-05-29T10:35:10.076Z,959.99
2019-05-29T10:36:10.118Z,960.05
2019-05-29T10:37:10.067Z,960.05
2019-05-29T10:38:10.036Z,960.12
2019-05-29T10:39:12.779Z,960.05
2019-05-29T10:40:10.022Z,960.06
2019-05-29T10:41:10.018Z,960.07
2019-05-29T10:42:10.049Z,960.08
2019-05-29T10:43:09.998Z,960.04
2019-05-29T10:44:12.665Z,960.00
2019-05-29T10:45:09.962Z,960.06
2019-05-29T10:46:09.957Z,959.97
2019-05-29T10:47:09.966Z,959.97
2019-05-29T10:48:10.434Z,960.03
2019-05-29T10:49:09.942Z,959.97
2019-05-29T10:50:10.108Z,960.02
2019-05-29T10:51:09.954Z,959.95
2019-05-29T10:52:16.176Z,959.98
2019-05-29T10:53:10.889Z,959.96
2019-05-29T10:54:09.855Z,960.05
2019-05-29T10:55:09.845Z,960.01
2019-05-29T10:56:09.852Z,960.04
2019-05-29T10:57:09.850Z,960.01
2019-05-29T10:58:09.852Z,960.04
2019-05-29T10:59:09.807Z,960.07
2019-05-29T11:00:09.832Z,960.00
2019-05-29T11:01:09.802Z,960.04
2019-05-29T11:02:09.793Z,960.09
2019-05-29T11:03:09.787Z,960.03
2019-05-29T11:04:09.807Z,960.13
2019-05-29T11:05:09.747Z,960.11
2019-05-29T11:06:09.727Z,960.11
2019-05-29T11:07:09.719Z,960.09
2019-05-29T11:08:09.718Z,960.05
2019-05-29T11:09:09.732Z,960.07
2019-05-29T11:10:13.325Z,960.07
2019-05-29T11:11:09.727Z,959.99
2019-05-29T11:12:09.672Z,960.10
2019-05-29T11:13:10.018Z,960.10
2019-05-29T11:14:09.643Z,960.05
2019-05-29T11:15:20.680Z,960.03
2019-05-29T11:16:10.622Z,960.07
2019-05-29T11:17:09.610Z,960.04
2019-05-29T11:18:09.617Z,960.14
2019-05-29T11:19:09.586Z,960.06
2019-05-29T11:20:09.613Z,960.05
2019-05-29T11:21:09.706Z,960.14
2019-05-29T11:22:25.080Z,960.14
2019-05-29T11:23:10.563Z,960.12
2019-05-29T11:24:09.560Z,960.22
2019-05-29T11:25:22.157Z,960.18
2019-05-29T11:26:10.506Z,960.16
2019-05-29T11:27:09.498Z,960.16
2019-05-29T11:28:09.476Z,960.16
2019-05-29T11:29:09.487Z,960.18
2019-05-29T11:30:09.464Z,960.17
2019-05-29T11:31:09.463Z,960.12
2019-05-29T11:32:09.437Z,960.20
2019-05-29T11:33:09.430Z,960.11
2019-05-29T11:34:09.437Z,960.18
2019-05-29T11:35:09.397Z,960.23
2019-05-29T11:36:13.136Z,960.20
2019-05-29T11:37:09.392Z,960.24
2019-05-29T11:38:09.367Z,960.19
2019-05-29T11:39:09.427Z,960.16
2019-05-29T11:40:09.346Z,960.24
2019-05-29T11:41:25.152Z,960.26
2019-05-29T11:42:26.047Z,960.17
2019-05-29T11:43:10.322Z,960.24
2019-05-29T11:44:09.346Z,960.20
2019-05-29T11:45:09.356Z,960.14
2019-05-29T11:46:09.315Z,960.12
2019-05-29T11:47:09.268Z,960.23
2019-05-29T11:48:09.258Z,960.24
2019-05-29T11:49:09.290Z,960.19
2019-05-29T11:50:18.741Z,960.26
2019-05-29T11:51:10.290Z,960.15
2019-05-29T11:52:23.796Z,960.20
2019-05-29T11:53:10.202Z,960.22
2019-05-29T11:54:09.208Z,960.25
2019-05-29T11:55:09.219Z,960.25
2019-05-29T11:56:09.210Z,960.21
2019-05-29T11:57:09.168Z,960.24
2019-05-29T11:58:09.193Z,960.24
2019-05-29T11:59:09.187Z,960.23
2019-05-29T12:00:18.898Z,960.29
2019-05-29T12:01:10.149Z,960.28
2019-05-29T12:02:09.110Z,960.22
2019-05-29T12:03:09.089Z,960.22
2019-05-29T12:04:24.397Z,960.18
2019-05-29T12:05:10.072Z,960.21
2019-05-29T12:06:09.058Z,960.25
2019-05-29T12:07:09.065Z,960.21
2019-05-29T12:08:09.219Z,960.18
2019-05-29T12:09:09.059Z,960.15
2019-05-29T12:10:09.039Z,960.17
2019-05-29T12:11:09.008Z,960.23
2019-05-29T12:12:09.073Z,960.22
2019-05-29T12:13:09.012Z,960.24
2019-05-29T12:14:10.629Z,960.23
2019-05-29T12:15:14.148Z,960.24
2019-05-29T12:16:09.958Z,960.23
2019-05-29T12:17:08.948Z,960.24
2019-05-29T12:18:23.156Z,960.22
2019-05-29T12:19:09.947Z,960.18
2019-05-29T12:20:26.619Z,960.18
2019-05-29T12:21:09.897Z,960.26
2019-05-29T12:22:08.884Z,960.29
2019-05-29T12:23:24.156Z,960.25
2019-05-29T12:24:09.881Z,960.34
2019-05-29T12:25:08.886Z,960.19
2019-05-29T12:26:21.506Z,960.27
2019-05-29T12:27:09.839Z,960.28
2019-05-29T12:28:08.828Z,960.42
2019-05-29T12:29:11.669Z,960.33